sensor_id;sensor_type;location;lat;lon;timestamp;temperature;humidity
72650;SHT31;61467;50.674;4.618;2023-03-23T00:01:27;13.21;73.46
72650;SHT31;61467;50.674;4.618;2023-03-23T00:03:58;13.17;73.47
72650;SHT31;61467;50.674;4.618;2023-03-23T00:06:27;13.20;73.63
72650;SHT31;61467;50.674;4.618;2023-03-23T00:09:00;13.13;73.86
72650;SHT31;61467;50.674;4.618;2023-03-23T00:11:31;13.06;73.88
72650;SHT31;61467;50.674;4.618;2023-03-23T00:13:59;13.11;74.05
72650;SHT31;61467;50.674;4.618;2023-03-23T00:16:29;13.11;74.08
72650;SHT31;61467;50.674;4.618;2023-03-23T00:18:58;13.13;73.66
72650;SHT31;61467;50.674;4.618;2023-03-23T00:21:26;13.13;73.98
72650;SHT31;61467;50.674;4.618;2023-03-23T00:23:58;13.24;73.70
72650;SHT31;61467;50.674;4.618;2023-03-23T00:26:26;13.18;73.67
72650;SHT31;61467;50.674;4.618;2023-03-23T00:28:56;12.97;74.53
72650;SHT31;61467;50.674;4.618;2023-03-23T00:31:26;13.14;74.09
72650;SHT31;61467;50.674;4.618;2023-03-23T00:33:57;13.04;73.93
72650;SHT31;61467;50.674;4.618;2023-03-23T00:36:26;13.10;74.04
72650;SHT31;61467;50.674;4.618;2023-03-23T00:38:53;13.23;73.65
72650;SHT31;61467;50.674;4.618;2023-03-23T00:41:23;13.11;74.22
72650;SHT31;61467;50.674;4.618;2023-03-23T00:43:52;13.02;74.55
72650;SHT31;61467;50.674;4.618;2023-03-23T00:46:20;12.86;75.37
72650;SHT31;61467;50.674;4.618;2023-03-23T00:48:48;12.90;75.16
72650;SHT31;61467;50.674;4.618;2023-03-23T00:51:16;12.76;75.41
72650;SHT31;61467;50.674;4.618;2023-03-23T00:53:43;12.90;74.97
72650;SHT31;61467;50.674;4.618;2023-03-23T00:56:11;13.00;74.50
72650;SHT31;61467;50.674;4.618;2023-03-23T00:58:37;12.99;74.49
72650;SHT31;61467;50.674;4.618;2023-03-23T01:01:05;13.15;74.15
72650;SHT31;61467;50.674;4.618;2023-03-23T01:03:34;13.03;74.18
72650;SHT31;61467;50.674;4.618;2023-03-23T01:06:08;12.90;74.87
72650;SHT31;61467;50.674;4.618;2023-03-23T01:08:39;12.92;74.71
72650;SHT31;61467;50.674;4.618;2023-03-23T01:11:11;13.10;74.37
72650;SHT31;61467;50.674;4.618;2023-03-23T01:13:38;12.92;75.24
72650;SHT31;61467;50.674;4.618;2023-03-23T01:16:06;12.84;75.54
72650;SHT31;61467;50.674;4.618;2023-03-23T01:18:34;12.92;75.43
72650;SHT31;61467;50.674;4.618;2023-03-23T01:21:04;12.80;75.78
72650;SHT31;61467;50.674;4.618;2023-03-23T01:23:31;12.77;76.03
72650;SHT31;61467;50.674;4.618;2023-03-23T01:26:02;12.89;75.53
72650;SHT31;61467;50.674;4.618;2023-03-23T01:28:29;12.96;75.40
72650;SHT31;61467;50.674;4.618;2023-03-23T01:30:59;12.84;75.92
72650;SHT31;61467;50.674;4.618;2023-03-23T01:33:27;13.04;74.96
72650;SHT31;61467;50.674;4.618;2023-03-23T01:35:55;12.87;75.25
72650;SHT31;61467;50.674;4.618;2023-03-23T01:38:22;12.90;75.23
72650;SHT31;61467;50.674;4.618;2023-03-23T01:40:49;13.08;74.80
72650;SHT31;61467;50.674;4.618;2023-03-23T01:43:16;13.08;74.56
72650;SHT31;61467;50.674;4.618;2023-03-23T01:45:43;13.04;74.08
72650;SHT31;61467;50.674;4.618;2023-03-23T01:48:13;12.94;74.59
72650;SHT31;61467;50.674;4.618;2023-03-23T01:50:47;12.94;74.55
72650;SHT31;61467;50.674;4.618;2023-03-23T01:53:18;12.89;74.73
72650;SHT31;61467;50.674;4.618;2023-03-23T01:55:46;12.89;74.55
72650;SHT31;61467;50.674;4.618;2023-03-23T01:58:17;12.87;74.96
72650;SHT31;61467;50.674;4.618;2023-03-23T02:00:46;12.93;74.23
72650;SHT31;61467;50.674;4.618;2023-03-23T02:03:14;13.07;73.52
72650;SHT31;61467;50.674;4.618;2023-03-23T02:05:42;13.06;73.72
72650;SHT31;61467;50.674;4.618;2023-03-23T02:08:11;12.99;73.66
72650;SHT31;61467;50.674;4.618;2023-03-23T02:10:40;12.99;73.38
72650;SHT31;61467;50.674;4.618;2023-03-23T02:13:09;12.97;73.18
72650;SHT31;61467;50.674;4.618;2023-03-23T02:15:47;12.97;73.26
72650;SHT31;61467;50.674;4.618;2023-03-23T02:18:27;13.14;72.52
72650;SHT31;61467;50.674;4.618;2023-03-23T02:21:31;13.03;72.99
72650;SHT31;61467;50.674;4.618;2023-03-23T02:27:08;12.92;73.00
72650;SHT31;61467;50.674;4.618;2023-03-23T02:29:59;12.99;72.89
72650;SHT31;61467;50.674;4.618;2023-03-23T02:35:37;12.92;73.17
72650;SHT31;61467;50.674;4.618;2023-03-23T02:38:08;12.86;73.17
72650;SHT31;61467;50.674;4.618;2023-03-23T02:40:39;13.08;72.73
72650;SHT31;61467;50.674;4.618;2023-03-23T02:43:10;13.06;72.68
72650;SHT31;61467;50.674;4.618;2023-03-23T02:45:40;12.96;72.77
72650;SHT31;61467;50.674;4.618;2023-03-23T02:48:09;12.89;73.52
72650;SHT31;61467;50.674;4.618;2023-03-23T02:50:40;12.86;73.09
72650;SHT31;61467;50.674;4.618;2023-03-23T02:53:10;12.82;73.55
72650;SHT31;61467;50.674;4.618;2023-03-23T02:55:41;12.73;73.63
72650;SHT31;61467;50.674;4.618;2023-03-23T02:58:08;12.93;73.28
72650;SHT31;61467;50.674;4.618;2023-03-23T03:00:35;12.82;73.47
72650;SHT31;61467;50.674;4.618;2023-03-23T03:03:03;12.77;73.58
72650;SHT31;61467;50.674;4.618;2023-03-23T03:05:37;12.69;73.93
72650;SHT31;61467;50.674;4.618;2023-03-23T03:08:15;12.70;74.16
72650;SHT31;61467;50.674;4.618;2023-03-23T03:10:50;12.72;74.00
72650;SHT31;61467;50.674;4.618;2023-03-23T03:13:39;12.79;73.39
72650;SHT31;61467;50.674;4.618;2023-03-23T03:16:16;12.83;73.18
72650;SHT31;61467;50.674;4.618;2023-03-23T03:18:48;12.77;73.20
72650;SHT31;61467;50.674;4.618;2023-03-23T03:21:19;12.93;72.86
72650;SHT31;61467;50.674;4.618;2023-03-23T03:23:55;12.75;73.44
72650;SHT31;61467;50.674;4.618;2023-03-23T03:26:25;12.82;73.54
72650;SHT31;61467;50.674;4.618;2023-03-23T03:28:54;12.72;73.95
72650;SHT31;61467;50.674;4.618;2023-03-23T03:31:23;12.73;73.82
72650;SHT31;61467;50.674;4.618;2023-03-23T03:33:52;12.67;74.12
72650;SHT31;61467;50.674;4.618;2023-03-23T03:36:22;12.69;74.09
72650;SHT31;61467;50.674;4.618;2023-03-23T03:38:51;12.70;74.18
72650;SHT31;61467;50.674;4.618;2023-03-23T03:41:20;12.62;74.51
72650;SHT31;61467;50.674;4.618;2023-03-23T03:43:46;12.67;74.20
72650;SHT31;61467;50.674;4.618;2023-03-23T03:46:13;12.77;73.58
72650;SHT31;61467;50.674;4.618;2023-03-23T03:48:40;12.67;74.58
72650;SHT31;61467;50.674;4.618;2023-03-23T03:51:07;12.76;73.99
72650;SHT31;61467;50.674;4.618;2023-03-23T03:53:35;12.69;74.09
72650;SHT31;61467;50.674;4.618;2023-03-23T03:56:02;12.57;74.18
72650;SHT31;61467;50.674;4.618;2023-03-23T03:58:31;12.57;74.42
72650;SHT31;61467;50.674;4.618;2023-03-23T04:00:58;12.64;73.62
72650;SHT31;61467;50.674;4.618;2023-03-23T04:03:25;12.53;74.06
72650;SHT31;61467;50.674;4.618;2023-03-23T04:05:53;12.50;74.43
72650;SHT31;61467;50.674;4.618;2023-03-23T04:08:21;12.57;73.60
72650;SHT31;61467;50.674;4.618;2023-03-23T04:10:48;12.52;73.92
72650;SHT31;61467;50.674;4.618;2023-03-23T04:13:15;12.52;73.64
72650;SHT31;61467;50.674;4.618;2023-03-23T04:15:45;12.67;73.47
72650;SHT31;61467;50.674;4.618;2023-03-23T04:18:12;12.62;73.36
72650;SHT31;61467;50.674;4.618;2023-03-23T04:20:41;12.57;73.19
72650;SHT31;61467;50.674;4.618;2023-03-23T04:23:08;12.62;72.80
72650;SHT31;61467;50.674;4.618;2023-03-23T04:25:34;12.60;72.91
72650;SHT31;61467;50.674;4.618;2023-03-23T04:28:01;12.48;73.31
72650;SHT31;61467;50.674;4.618;2023-03-23T04:30:28;12.57;73.06
72650;SHT31;61467;50.674;4.618;2023-03-23T04:32:58;12.50;73.38
72650;SHT31;61467;50.674;4.618;2023-03-23T04:35:26;12.50;73.22
72650;SHT31;61467;50.674;4.618;2023-03-23T04:37:55;12.50;72.74
72650;SHT31;61467;50.674;4.618;2023-03-23T04:40:23;12.53;72.90
72650;SHT31;61467;50.674;4.618;2023-03-23T04:42:50;12.53;72.99
72650;SHT31;61467;50.674;4.618;2023-03-23T04:45:19;12.49;72.89
72650;SHT31;61467;50.674;4.618;2023-03-23T04:47:47;12.36;73.51
72650;SHT31;61467;50.674;4.618;2023-03-23T04:50:21;12.48;73.25
72650;SHT31;61467;50.674;4.618;2023-03-23T04:52:50;12.55;73.03
72650;SHT31;61467;50.674;4.618;2023-03-23T04:55:20;12.42;73.41
72650;SHT31;61467;50.674;4.618;2023-03-23T04:57:47;12.29;73.69
72650;SHT31;61467;50.674;4.618;2023-03-23T05:00:14;12.29;73.61
72650;SHT31;61467;50.674;4.618;2023-03-23T05:02:42;12.38;73.38
72650;SHT31;61467;50.674;4.618;2023-03-23T05:05:11;12.32;73.41
72650;SHT31;61467;50.674;4.618;2023-03-23T05:07:40;12.50;72.65
72650;SHT31;61467;50.674;4.618;2023-03-23T05:10:09;12.46;73.29
72650;SHT31;61467;50.674;4.618;2023-03-23T05:12:36;12.43;73.01
72650;SHT31;61467;50.674;4.618;2023-03-23T05:15:04;12.38;73.21
72650;SHT31;61467;50.674;4.618;2023-03-23T05:17:32;12.28;73.52
72650;SHT31;61467;50.674;4.618;2023-03-23T05:19:59;12.34;73.37
72650;SHT31;61467;50.674;4.618;2023-03-23T05:22:27;12.34;73.27
72650;SHT31;61467;50.674;4.618;2023-03-23T05:24:55;12.36;72.90
72650;SHT31;61467;50.674;4.618;2023-03-23T05:27:22;12.57;71.88
72650;SHT31;61467;50.674;4.618;2023-03-23T05:29:49;12.52;72.34
72650;SHT31;61467;50.674;4.618;2023-03-23T05:32:16;12.50;72.15
72650;SHT31;61467;50.674;4.618;2023-03-23T05:34:44;12.53;71.99
72650;SHT31;61467;50.674;4.618;2023-03-23T05:37:12;12.36;72.54
72650;SHT31;61467;50.674;4.618;2023-03-23T05:39:39;12.36;72.23
72650;SHT31;61467;50.674;4.618;2023-03-23T05:42:07;12.34;72.24
72650;SHT31;61467;50.674;4.618;2023-03-23T05:44:34;12.48;71.99
72650;SHT31;61467;50.674;4.618;2023-03-23T05:47:01;12.34;72.63
72650;SHT31;61467;50.674;4.618;2023-03-23T05:49:28;12.34;72.19
72650;SHT31;61467;50.674;4.618;2023-03-23T05:51:55;12.31;72.34
72650;SHT31;61467;50.674;4.618;2023-03-23T05:54:22;12.35;72.31
72650;SHT31;61467;50.674;4.618;2023-03-23T05:56:49;12.35;72.41
72650;SHT31;61467;50.674;4.618;2023-03-23T05:59:17;12.35;72.21
72650;SHT31;61467;50.674;4.618;2023-03-23T06:01:44;12.31;72.44
72650;SHT31;61467;50.674;4.618;2023-03-23T06:04:11;12.26;72.36
72650;SHT31;61467;50.674;4.618;2023-03-23T06:06:39;12.43;72.14
72650;SHT31;61467;50.674;4.618;2023-03-23T06:09:09;12.52;71.68
72650;SHT31;61467;50.674;4.618;2023-03-23T06:11:36;12.41;71.97
72650;SHT31;61467;50.674;4.618;2023-03-23T06:14:03;12.42;72.19
72650;SHT31;61467;50.674;4.618;2023-03-23T06:16:32;12.32;72.59
72650;SHT31;61467;50.674;4.618;2023-03-23T06:18:58;12.21;72.86
72650;SHT31;61467;50.674;4.618;2023-03-23T06:21:27;12.35;72.48
72650;SHT31;61467;50.674;4.618;2023-03-23T06:23:54;12.25;72.62
72650;SHT31;61467;50.674;4.618;2023-03-23T06:26:24;12.41;72.16
72650;SHT31;61467;50.674;4.618;2023-03-23T06:28:52;12.43;72.18
72650;SHT31;61467;50.674;4.618;2023-03-23T06:31:20;12.45;71.51
72650;SHT31;61467;50.674;4.618;2023-03-23T06:33:48;12.24;72.04
72650;SHT31;61467;50.674;4.618;2023-03-23T06:36:15;12.46;71.49
72650;SHT31;61467;50.674;4.618;2023-03-23T06:38:43;12.42;71.57
72650;SHT31;61467;50.674;4.618;2023-03-23T06:41:10;12.39;72.07
72650;SHT31;61467;50.674;4.618;2023-03-23T06:43:37;12.34;71.82
72650;SHT31;61467;50.674;4.618;2023-03-23T06:46:05;12.53;71.30
72650;SHT31;61467;50.674;4.618;2023-03-23T06:48:32;12.52;71.66
72650;SHT31;61467;50.674;4.618;2023-03-23T06:51:00;12.46;71.71
72650;SHT31;61467;50.674;4.618;2023-03-23T06:53:27;12.39;71.85
72650;SHT31;61467;50.674;4.618;2023-03-23T06:55:54;12.36;71.89
72650;SHT31;61467;50.674;4.618;2023-03-23T06:58:21;12.45;71.91
72650;SHT31;61467;50.674;4.618;2023-03-23T07:00:53;12.42;71.86
72650;SHT31;61467;50.674;4.618;2023-03-23T07:03:20;12.55;71.68
72650;SHT31;61467;50.674;4.618;2023-03-23T07:05:47;12.70;70.58
72650;SHT31;61467;50.674;4.618;2023-03-23T07:08:17;12.67;70.45
72650;SHT31;61467;50.674;4.618;2023-03-23T07:10:44;12.55;71.25
72650;SHT31;61467;50.674;4.618;2023-03-23T07:13:11;12.72;70.44
72650;SHT31;61467;50.674;4.618;2023-03-23T07:15:39;12.56;71.31
72650;SHT31;61467;50.674;4.618;2023-03-23T07:18:06;12.56;70.96
72650;SHT31;61467;50.674;4.618;2023-03-23T07:20:33;12.63;70.73
72650;SHT31;61467;50.674;4.618;2023-03-23T07:22:59;12.57;71.11
72650;SHT31;61467;50.674;4.618;2023-03-23T07:25:28;12.59;70.93
72650;SHT31;61467;50.674;4.618;2023-03-23T07:27:55;12.55;71.21
72650;SHT31;61467;50.674;4.618;2023-03-23T07:30:22;12.42;71.92
72650;SHT31;61467;50.674;4.618;2023-03-23T07:32:49;12.60;71.26
72650;SHT31;61467;50.674;4.618;2023-03-23T07:35:16;12.57;71.54
72650;SHT31;61467;50.674;4.618;2023-03-23T07:37:43;12.53;71.45
72650;SHT31;61467;50.674;4.618;2023-03-23T07:40:11;12.35;72.39
72650;SHT31;61467;50.674;4.618;2023-03-23T07:42:43;12.52;72.23
72650;SHT31;61467;50.674;4.618;2023-03-23T07:45:12;12.52;72.54
72650;SHT31;61467;50.674;4.618;2023-03-23T07:47:39;12.56;72.92
72650;SHT31;61467;50.674;4.618;2023-03-23T07:50:08;12.50;73.78
72650;SHT31;61467;50.674;4.618;2023-03-23T07:52:35;12.55;73.99
72650;SHT31;61467;50.674;4.618;2023-03-23T07:55:06;12.48;74.21
72650;SHT31;61467;50.674;4.618;2023-03-23T07:57:35;12.53;74.50
72650;SHT31;61467;50.674;4.618;2023-03-23T08:00:08;12.42;75.07
72650;SHT31;61467;50.674;4.618;2023-03-23T08:02:37;12.36;75.35
72650;SHT31;61467;50.674;4.618;2023-03-23T08:05:05;12.42;75.50
72650;SHT31;61467;50.674;4.618;2023-03-23T08:07:33;12.39;76.14
72650;SHT31;61467;50.674;4.618;2023-03-23T08:10:01;12.28;77.30
72650;SHT31;61467;50.674;4.618;2023-03-23T08:12:28;12.10;78.88
72650;SHT31;61467;50.674;4.618;2023-03-23T08:14:55;12.06;80.20
72650;SHT31;61467;50.674;4.618;2023-03-23T08:17:27;11.95;79.88
72650;SHT31;61467;50.674;4.618;2023-03-23T08:19:55;11.74;79.12
72650;SHT31;61467;50.674;4.618;2023-03-23T08:22:23;11.50;79.10
72650;SHT31;61467;50.674;4.618;2023-03-23T08:24:51;11.71;77.81
72650;SHT31;61467;50.674;4.618;2023-03-23T08:27:19;11.32;79.25
72650;SHT31;61467;50.674;4.618;2023-03-23T08:29:48;11.20;79.45
72650;SHT31;61467;50.674;4.618;2023-03-23T08:32:18;11.39;79.22
72650;SHT31;61467;50.674;4.618;2023-03-23T08:34:47;11.50;78.91
72650;SHT31;61467;50.674;4.618;2023-03-23T08:37:14;11.36;79.92
72650;SHT31;61467;50.674;4.618;2023-03-23T08:39:42;11.20;80.04
72650;SHT31;61467;50.674;4.618;2023-03-23T08:42:12;11.22;79.77
72650;SHT31;61467;50.674;4.618;2023-03-23T08:44:39;11.26;80.64
72650;SHT31;61467;50.674;4.618;2023-03-23T08:47:07;11.25;80.29
72650;SHT31;61467;50.674;4.618;2023-03-23T08:49:33;11.56;80.93
72650;SHT31;61467;50.674;4.618;2023-03-23T08:52:03;11.70;79.95
72650;SHT31;61467;50.674;4.618;2023-03-23T08:54:31;11.43;80.24
72650;SHT31;61467;50.674;4.618;2023-03-23T08:57:01;11.73;79.84
72650;SHT31;61467;50.674;4.618;2023-03-23T08:59:28;11.66;79.17
72650;SHT31;61467;50.674;4.618;2023-03-23T09:01:55;11.77;79.38
72650;SHT31;61467;50.674;4.618;2023-03-23T09:04:22;11.77;78.66
72650;SHT31;61467;50.674;4.618;2023-03-23T09:06:49;11.59;79.71
72650;SHT31;61467;50.674;4.618;2023-03-23T09:09:21;11.84;79.13
72650;SHT31;61467;50.674;4.618;2023-03-23T09:11:48;11.77;79.27
72650;SHT31;61467;50.674;4.618;2023-03-23T09:14:15;11.81;79.51
72650;SHT31;61467;50.674;4.618;2023-03-23T09:16:42;11.90;78.90
72650;SHT31;61467;50.674;4.618;2023-03-23T09:19:10;11.85;79.46
72650;SHT31;61467;50.674;4.618;2023-03-23T09:21:38;11.75;78.99
72650;SHT31;61467;50.674;4.618;2023-03-23T09:24:05;11.83;78.80
72650;SHT31;61467;50.674;4.618;2023-03-23T09:26:33;11.77;79.30
72650;SHT31;61467;50.674;4.618;2023-03-23T09:29:00;11.63;78.93
72650;SHT31;61467;50.674;4.618;2023-03-23T09:31:27;11.70;79.56
72650;SHT31;61467;50.674;4.618;2023-03-23T09:33:54;11.81;79.33
72650;SHT31;61467;50.674;4.618;2023-03-23T09:36:22;11.83;79.21
72650;SHT31;61467;50.674;4.618;2023-03-23T09:38:51;11.54;79.63
72650;SHT31;61467;50.674;4.618;2023-03-23T09:41:36;11.36;80.54
72650;SHT31;61467;50.674;4.618;2023-03-23T09:44:16;11.40;80.17
72650;SHT31;61467;50.674;4.618;2023-03-23T09:46:52;11.56;80.69
72650;SHT31;61467;50.674;4.618;2023-03-23T09:49:24;11.74;80.02
72650;SHT31;61467;50.674;4.618;2023-03-23T09:51:55;11.71;80.24
72650;SHT31;61467;50.674;4.618;2023-03-23T09:54:26;11.80;79.73
72650;SHT31;61467;50.674;4.618;2023-03-23T09:56:58;11.81;79.79
72650;SHT31;61467;50.674;4.618;2023-03-23T09:59:30;11.81;80.21
72650;SHT31;61467;50.674;4.618;2023-03-23T10:02:14;11.78;80.54
72650;SHT31;61467;50.674;4.618;2023-03-23T10:04:44;11.80;80.98
72650;SHT31;61467;50.674;4.618;2023-03-23T10:07:13;11.77;80.78
72650;SHT31;61467;50.674;4.618;2023-03-23T10:09:42;11.71;81.85
72650;SHT31;61467;50.674;4.618;2023-03-23T10:12:20;11.73;81.51
72650;SHT31;61467;50.674;4.618;2023-03-23T10:14:57;11.75;81.67
72650;SHT31;61467;50.674;4.618;2023-03-23T10:17:28;11.69;81.65
72650;SHT31;61467;50.674;4.618;2023-03-23T10:20:09;11.62;82.52
72650;SHT31;61467;50.674;4.618;2023-03-23T10:22:44;11.56;83.25
72650;SHT31;61467;50.674;4.618;2023-03-23T10:25:16;11.60;83.31
72650;SHT31;61467;50.674;4.618;2023-03-23T10:27:51;11.75;82.41
72650;SHT31;61467;50.674;4.618;2023-03-23T10:30:25;11.56;82.90
72650;SHT31;61467;50.674;4.618;2023-03-23T10:32:56;11.69;82.64
72650;SHT31;61467;50.674;4.618;2023-03-23T10:35:29;11.64;83.41
72650;SHT31;61467;50.674;4.618;2023-03-23T10:38:01;11.66;83.46
72650;SHT31;61467;50.674;4.618;2023-03-23T10:40:30;11.77;83.08
72650;SHT31;61467;50.674;4.618;2023-03-23T10:43:02;11.90;83.07
72650;SHT31;61467;50.674;4.618;2023-03-23T10:45:33;11.88;83.31
72650;SHT31;61467;50.674;4.618;2023-03-23T10:48:07;12.06;82.32
72650;SHT31;61467;50.674;4.618;2023-03-23T10:50:38;12.15;82.37
72650;SHT31;61467;50.674;4.618;2023-03-23T10:53:13;12.24;82.19
72650;SHT31;61467;50.674;4.618;2023-03-23T10:55:42;12.34;81.66
72650;SHT31;61467;50.674;4.618;2023-03-23T10:58:21;12.02;83.00
72650;SHT31;61467;50.674;4.618;2023-03-23T11:00:49;12.06;82.37
72650;SHT31;61467;50.674;4.618;2023-03-23T11:03:38;12.15;82.78
72650;SHT31;61467;50.674;4.618;2023-03-23T11:06:07;12.22;82.69
72650;SHT31;61467;50.674;4.618;2023-03-23T11:08:47;12.29;83.04
72650;SHT31;61467;50.674;4.618;2023-03-23T11:11:16;12.25;82.71
72650;SHT31;61467;50.674;4.618;2023-03-23T11:13:46;12.41;82.85
72650;SHT31;61467;50.674;4.618;2023-03-23T11:16:22;12.21;83.42
72650;SHT31;61467;50.674;4.618;2023-03-23T11:18:49;12.45;83.07
72650;SHT31;61467;50.674;4.618;2023-03-23T11:21:19;12.64;83.53
72650;SHT31;61467;50.674;4.618;2023-03-23T11:23:49;12.75;82.62
72650;SHT31;61467;50.674;4.618;2023-03-23T11:26:21;12.90;81.61
72650;SHT31;61467;50.674;4.618;2023-03-23T11:28:55;12.79;82.44
72650;SHT31;61467;50.674;4.618;2023-03-23T11:31:23;13.02;81.28
72650;SHT31;61467;50.674;4.618;2023-03-23T11:33:54;13.31;80.94
72650;SHT31;61467;50.674;4.618;2023-03-23T11:36:29;13.30;80.58
72650;SHT31;61467;50.674;4.618;2023-03-23T11:38:56;13.20;80.64
72650;SHT31;61467;50.674;4.618;2023-03-23T11:41:24;13.24;80.74
72650;SHT31;61467;50.674;4.618;2023-03-23T11:43:56;13.20;80.77
72650;SHT31;61467;50.674;4.618;2023-03-23T11:46:30;13.24;80.48
72650;SHT31;61467;50.674;4.618;2023-03-23T11:49:01;13.06;80.27
72650;SHT31;61467;50.674;4.618;2023-03-23T11:51:37;12.89;80.56
72650;SHT31;61467;50.674;4.618;2023-03-23T11:54:09;12.87;81.15
72650;SHT31;61467;50.674;4.618;2023-03-23T11:56:41;12.70;81.76
72650;SHT31;61467;50.674;4.618;2023-03-23T11:59:25;12.29;83.52
72650;SHT31;61467;50.674;4.618;2023-03-23T12:01:57;12.72;84.42
72650;SHT31;61467;50.674;4.618;2023-03-23T12:04:56;12.99;84.69
72650;SHT31;61467;50.674;4.618;2023-03-23T12:07:46;13.13;84.34
72650;SHT31;61467;50.674;4.618;2023-03-23T12:10:25;13.27;82.83
72650;SHT31;61467;50.674;4.618;2023-03-23T12:13:03;13.57;82.99
72650;SHT31;61467;50.674;4.618;2023-03-23T12:15:38;13.87;81.88
72650;SHT31;61467;50.674;4.618;2023-03-23T12:18:17;14.16;79.64
72650;SHT31;61467;50.674;4.618;2023-03-23T12:20:55;14.26;76.97
72650;SHT31;61467;50.674;4.618;2023-03-23T12:23:24;14.19;78.31
72650;SHT31;61467;50.674;4.618;2023-03-23T12:26:13;14.40;76.81
72650;SHT31;61467;50.674;4.618;2023-03-23T12:32:15;14.13;75.71
72650;SHT31;61467;50.674;4.618;2023-03-23T12:34:50;14.26;75.74
72650;SHT31;61467;50.674;4.618;2023-03-23T12:37:43;14.01;75.61
72650;SHT31;61467;50.674;4.618;2023-03-23T12:40:42;14.05;75.79
72650;SHT31;61467;50.674;4.618;2023-03-23T12:43:18;13.73;77.59
72650;SHT31;61467;50.674;4.618;2023-03-23T12:45:58;13.58;77.96
72650;SHT31;61467;50.674;4.618;2023-03-23T12:48:29;13.37;78.74
72650;SHT31;61467;50.674;4.618;2023-03-23T12:51:16;13.38;78.69
72650;SHT31;61467;50.674;4.618;2023-03-23T12:53:50;13.06;79.99
72650;SHT31;61467;50.674;4.618;2023-03-23T12:56:22;13.18;79.87
72650;SHT31;61467;50.674;4.618;2023-03-23T12:58:53;13.30;80.94
72650;SHT31;61467;50.674;4.618;2023-03-23T13:01:24;13.58;81.46
72650;SHT31;61467;50.674;4.618;2023-03-23T13:03:57;13.95;80.84
72650;SHT31;61467;50.674;4.618;2023-03-23T13:06:29;14.24;80.69
72650;SHT31;61467;50.674;4.618;2023-03-23T13:09:03;14.59;78.85
72650;SHT31;61467;50.674;4.618;2023-03-23T13:11:34;14.80;77.75
72650;SHT31;61467;50.674;4.618;2023-03-23T13:14:15;14.84;77.06
72650;SHT31;61467;50.674;4.618;2023-03-23T13:16:49;14.82;76.57
72650;SHT31;61467;50.674;4.618;2023-03-23T13:19:26;15.02;75.13
72650;SHT31;61467;50.674;4.618;2023-03-23T13:22:00;15.09;74.26
72650;SHT31;61467;50.674;4.618;2023-03-23T13:24:31;14.95;74.42
72650;SHT31;61467;50.674;4.618;2023-03-23T13:26:59;15.22;73.05
72650;SHT31;61467;50.674;4.618;2023-03-23T13:29:27;15.21;71.71
72650;SHT31;61467;50.674;4.618;2023-03-23T13:32:06;15.33;72.05
72650;SHT31;61467;50.674;4.618;2023-03-23T13:34:35;15.33;72.21
72650;SHT31;61467;50.674;4.618;2023-03-23T13:37:04;15.25;71.62
72650;SHT31;61467;50.674;4.618;2023-03-23T13:39:34;15.09;71.40
72650;SHT31;61467;50.674;4.618;2023-03-23T13:42:18;14.94;69.40
72650;SHT31;61467;50.674;4.618;2023-03-23T13:44:56;14.91;68.60
72650;SHT31;61467;50.674;4.618;2023-03-23T13:47:28;14.96;68.39
72650;SHT31;61467;50.674;4.618;2023-03-23T13:50:00;14.77;69.53
72650;SHT31;61467;50.674;4.618;2023-03-23T13:52:51;14.57;69.60
72650;SHT31;61467;50.674;4.618;2023-03-23T13:58:10;14.78;71.53
72650;SHT31;61467;50.674;4.618;2023-03-23T14:00:48;14.73;72.21
72650;SHT31;61467;50.674;4.618;2023-03-23T14:03:19;14.71;71.60
72650;SHT31;61467;50.674;4.618;2023-03-23T14:06:01;14.54;72.75
72650;SHT31;61467;50.674;4.618;2023-03-23T14:08:41;14.64;73.27
72650;SHT31;61467;50.674;4.618;2023-03-23T14:11:15;14.68;72.78
72650;SHT31;61467;50.674;4.618;2023-03-23T14:13:49;14.88;71.56
72650;SHT31;61467;50.674;4.618;2023-03-23T14:16:20;15.01;70.60
72650;SHT31;61467;50.674;4.618;2023-03-23T14:18:52;15.19;68.12
72650;SHT31;61467;50.674;4.618;2023-03-23T14:21:30;14.99;70.11
72650;SHT31;61467;50.674;4.618;2023-03-23T14:24:00;15.04;69.61
72650;SHT31;61467;50.674;4.618;2023-03-23T14:26:27;15.01;67.97
72650;SHT31;61467;50.674;4.618;2023-03-23T14:28:55;14.92;68.38
72650;SHT31;61467;50.674;4.618;2023-03-23T14:31:24;14.95;68.30
72650;SHT31;61467;50.674;4.618;2023-03-23T14:33:53;14.98;66.29
72650;SHT31;61467;50.674;4.618;2023-03-23T14:36:24;14.75;66.85
72650;SHT31;61467;50.674;4.618;2023-03-23T14:38:59;14.73;66.69
72650;SHT31;61467;50.674;4.618;2023-03-23T14:41:29;14.57;67.00
72650;SHT31;61467;50.674;4.618;2023-03-23T14:43:56;14.57;67.27
72650;SHT31;61467;50.674;4.618;2023-03-23T14:46:24;14.74;66.63
72650;SHT31;61467;50.674;4.618;2023-03-23T14:48:52;14.45;67.38
72650;SHT31;61467;50.674;4.618;2023-03-23T14:51:20;14.70;67.26
72650;SHT31;61467;50.674;4.618;2023-03-23T14:53:48;14.82;66.57
72650;SHT31;61467;50.674;4.618;2023-03-23T14:56:18;15.08;65.96
72650;SHT31;61467;50.674;4.618;2023-03-23T14:58:46;15.02;66.06
72650;SHT31;61467;50.674;4.618;2023-03-23T15:01:16;15.12;65.69
72650;SHT31;61467;50.674;4.618;2023-03-23T15:03:50;15.26;65.05
72650;SHT31;61467;50.674;4.618;2023-03-23T15:06:20;15.52;64.71
72650;SHT31;61467;50.674;4.618;2023-03-23T15:08:54;15.57;63.83
72650;SHT31;61467;50.674;4.618;2023-03-23T15:11:24;15.63;64.17
72650;SHT31;61467;50.674;4.618;2023-03-23T15:13:53;15.59;63.99
72650;SHT31;61467;50.674;4.618;2023-03-23T15:16:23;15.74;64.59
72650;SHT31;61467;50.674;4.618;2023-03-23T15:18:53;15.62;63.54
72650;SHT31;61467;50.674;4.618;2023-03-23T15:21:23;15.53;64.08
72650;SHT31;61467;50.674;4.618;2023-03-23T15:23:52;15.69;63.84
72650;SHT31;61467;50.674;4.618;2023-03-23T15:26:25;15.73;63.42
72650;SHT31;61467;50.674;4.618;2023-03-23T15:31:47;15.64;63.38
72650;SHT31;61467;50.674;4.618;2023-03-23T15:34:24;15.71;63.11
72650;SHT31;61467;50.674;4.618;2023-03-23T15:36:55;15.59;64.25
72650;SHT31;61467;50.674;4.618;2023-03-23T15:39:23;15.64;63.79
72650;SHT31;61467;50.674;4.618;2023-03-23T15:41:51;15.69;63.79
72650;SHT31;61467;50.674;4.618;2023-03-23T15:44:22;15.62;64.00
72650;SHT31;61467;50.674;4.618;2023-03-23T15:46:51;15.52;64.21
72650;SHT31;61467;50.674;4.618;2023-03-23T15:49:24;15.36;64.72
72650;SHT31;61467;50.674;4.618;2023-03-23T15:51:51;15.33;64.84
72650;SHT31;61467;50.674;4.618;2023-03-23T15:54:18;15.31;64.12
72650;SHT31;61467;50.674;4.618;2023-03-23T15:56:46;15.29;64.82
72650;SHT31;61467;50.674;4.618;2023-03-23T15:59:13;15.28;64.13
72650;SHT31;61467;50.674;4.618;2023-03-23T16:01:41;15.23;63.82
72650;SHT31;61467;50.674;4.618;2023-03-23T16:04:11;15.11;64.40
72650;SHT31;61467;50.674;4.618;2023-03-23T16:06:39;15.26;63.61